sensor_id;sensor_type;location;lat;lon;timestamp;temperature;humidity
19968;DHT22;10145;49.152;9.282;2023-04-29T00:01:21;11.10;99.90
19968;DHT22;10145;49.152;9.282;2023-04-29T00:03:47;11.00;99.90
19968;DHT22;10145;49.152;9.282;2023-04-29T00:06:13;10.90;99.90
19968;DHT22;10145;49.152;9.282;2023-04-29T00:08:39;10.90;99.90
19968;DHT22;10145;49.152;9.282;2023-04-29T00:11:05;11.00;99.90
19968;DHT22;10145;49.152;9.282;2023-04-29T00:13:30;11.10;99.90
19968;DHT22;10145;49.152;9.282;2023-04-29T00:15:56;11.10;99.90
19968;DHT22;10145;49.152;9.282;2023-04-29T00:18:21;11.10;99.90
19968;DHT22;10145;49.152;9.282;2023-04-29T00:20:47;11.00;99.90
19968;DHT22;10145;49.152;9.282;2023-04-29T00:23:12;11.00;99.90
19968;DHT22;10145;49.152;9.282;2023-04-29T00:25:38;10.90;99.90
19968;DHT22;10145;49.152;9.282;2023-04-29T00:28:04;10.80;99.90
19968;DHT22;10145;49.152;9.282;2023-04-29T00:30:30;10.70;99.90
19968;DHT22;10145;49.152;9.282;2023-04-29T00:32:57;10.70;99.90
19968;DHT22;10145;49.152;9.282;2023-04-29T00:35:22;10.60;99.90
19968;DHT22;10145;49.152;9.282;2023-04-29T00:37:48;10.60;99.90
19968;DHT22;10145;49.152;9.282;2023-04-29T00:40:13;10.50;99.90
19968;DHT22;10145;49.152;9.282;2023-04-29T00:42:42;10.50;99.90
19968;DHT22;10145;49.152;9.282;2023-04-29T00:45:08;10.50;99.90
19968;DHT22;10145;49.152;9.282;2023-04-29T00:47:36;10.50;99.90
19968;DHT22;10145;49.152;9.282;2023-04-29T00:50:01;10.50;99.90
19968;DHT22;10145;49.152;9.282;2023-04-29T00:52:29;10.50;99.90
19968;DHT22;10145;49.152;9.282;2023-04-29T00:54:56;10.50;99.90
19968;DHT22;10145;49.152;9.282;2023-04-29T00:57:22;10.50;99.90
19968;DHT22;10145;49.152;9.282;2023-04-29T00:59:48;10.50;99.90
19968;DHT22;10145;49.152;9.282;2023-04-29T01:02:14;10.40;99.90
19968;DHT22;10145;49.152;9.282;2023-04-29T01:04:41;10.40;99.90
19968;DHT22;10145;49.152;9.282;2023-04-29T01:15:02;10.10;99.90
19968;DHT22;10145;49.152;9.282;2023-04-29T01:17:30;10.00;99.90
19968;DHT22;10145;49.152;9.282;2023-04-29T01:20:00;10.00;99.90
19968;DHT22;10145;49.152;9.282;2023-04-29T01:22:26;10.00;99.90
19968;DHT22;10145;49.152;9.282;2023-04-29T01:24:51;10.00;99.90
19968;DHT22;10145;49.152;9.282;2023-04-29T01:27:29;10.00;99.90
19968;DHT22;10145;49.152;9.282;2023-04-29T01:30:07;10.00;99.90
19968;DHT22;10145;49.152;9.282;2023-04-29T01:32:58;10.00;99.90
19968;DHT22;10145;49.152;9.282;2023-04-29T01:35:30;10.00;99.90
19968;DHT22;10145;49.152;9.282;2023-04-29T01:38:17;10.00;99.90
19968;DHT22;10145;49.152;9.282;2023-04-29T01:40:55;10.00;99.90
19968;DHT22;10145;49.152;9.282;2023-04-29T01:43:24;10.00;99.90
19968;DHT22;10145;49.152;9.282;2023-04-29T01:45:55;10.00;99.90
19968;DHT22;10145;49.152;9.282;2023-04-29T01:48:22;10.10;99.90
19968;DHT22;10145;49.152;9.282;2023-04-29T01:50:48;10.10;99.90
19968;DHT22;10145;49.152;9.282;2023-04-29T01:53:14;10.20;99.90
19968;DHT22;10145;49.152;9.282;2023-04-29T01:55:40;10.30;99.90
19968;DHT22;10145;49.152;9.282;2023-04-29T01:58:05;10.30;99.90
19968;DHT22;10145;49.152;9.282;2023-04-29T02:00:31;10.40;99.90
19968;DHT22;10145;49.152;9.282;2023-04-29T02:02:56;10.40;99.90
19968;DHT22;10145;49.152;9.282;2023-04-29T02:05:22;10.40;99.90
19968;DHT22;10145;49.152;9.282;2023-04-29T02:07:48;10.50;99.90
19968;DHT22;10145;49.152;9.282;2023-04-29T02:10:13;10.50;99.90
19968;DHT22;10145;49.152;9.282;2023-04-29T02:12:39;10.60;99.90
19968;DHT22;10145;49.152;9.282;2023-04-29T02:15:05;10.60;99.90
19968;DHT22;10145;49.152;9.282;2023-04-29T02:17:33;10.70;99.90
19968;DHT22;10145;49.152;9.282;2023-04-29T02:19:58;10.80;99.90
19968;DHT22;10145;49.152;9.282;2023-04-29T02:22:24;10.90;99.90
19968;DHT22;10145;49.152;9.282;2023-04-29T02:24:50;10.90;99.90
19968;DHT22;10145;49.152;9.282;2023-04-29T02:27:16;10.90;99.90
19968;DHT22;10145;49.152;9.282;2023-04-29T02:29:42;11.00;99.90
19968;DHT22;10145;49.152;9.282;2023-04-29T02:32:07;11.00;99.90
19968;DHT22;10145;49.152;9.282;2023-04-29T02:34:33;11.00;99.90
19968;DHT22;10145;49.152;9.282;2023-04-29T02:36:59;11.10;99.90
19968;DHT22;10145;49.152;9.282;2023-04-29T02:39:24;11.10;99.90
19968;DHT22;10145;49.152;9.282;2023-04-29T02:41:53;11.20;99.90
19968;DHT22;10145;49.152;9.282;2023-04-29T02:44:19;11.20;99.90
19968;DHT22;10145;49.152;9.282;2023-04-29T02:46:44;11.20;99.90
19968;DHT22;10145;49.152;9.282;2023-04-29T02:49:11;11.30;99.90
19968;DHT22;10145;49.152;9.282;2023-04-29T02:51:38;11.50;99.90
19968;DHT22;10145;49.152;9.282;2023-04-29T02:54:03;11.60;99.90
19968;DHT22;10145;49.152;9.282;2023-04-29T02:56:29;11.60;99.90
19968;DHT22;10145;49.152;9.282;2023-04-29T02:58:55;11.60;99.90
19968;DHT22;10145;49.152;9.282;2023-04-29T03:01:20;11.60;99.90
19968;DHT22;10145;49.152;9.282;2023-04-29T03:03:46;11.70;99.90
19968;DHT22;10145;49.152;9.282;2023-04-29T03:06:13;11.70;99.90
19968;DHT22;10145;49.152;9.282;2023-04-29T03:08:40;11.80;99.90
19968;DHT22;10145;49.152;9.282;2023-04-29T03:11:05;11.90;99.90
19968;DHT22;10145;49.152;9.282;2023-04-29T03:13:31;12.00;99.90
19968;DHT22;10145;49.152;9.282;2023-04-29T03:15:57;12.00;99.90
19968;DHT22;10145;49.152;9.282;2023-04-29T03:18:24;12.10;99.90
19968;DHT22;10145;49.152;9.282;2023-04-29T03:20:50;12.10;99.90
19968;DHT22;10145;49.152;9.282;2023-04-29T03:23:15;12.20;99.90
19968;DHT22;10145;49.152;9.282;2023-04-29T03:25:41;12.20;99.90
19968;DHT22;10145;49.152;9.282;2023-04-29T03:28:07;12.20;99.90
19968;DHT22;10145;49.152;9.282;2023-04-29T03:30:32;12.30;99.90
19968;DHT22;10145;49.152;9.282;2023-04-29T03:32:58;12.30;99.90
19968;DHT22;10145;49.152;9.282;2023-04-29T03:35:24;12.30;99.90
19968;DHT22;10145;49.152;9.282;2023-04-29T03:37:49;12.40;99.90
19968;DHT22;10145;49.152;9.282;2023-04-29T03:40:15;12.40;99.90
19968;DHT22;10145;49.152;9.282;2023-04-29T03:42:41;12.40;99.90
19968;DHT22;10145;49.152;9.282;2023-04-29T03:45:07;12.40;99.90
19968;DHT22;10145;49.152;9.282;2023-04-29T03:47:32;12.40;99.90
19968;DHT22;10145;49.152;9.282;2023-04-29T03:49:58;12.40;99.90
19968;DHT22;10145;49.152;9.282;2023-04-29T03:52:23;12.40;99.90
19968;DHT22;10145;49.152;9.282;2023-04-29T03:54:50;12.40;99.90
19968;DHT22;10145;49.152;9.282;2023-04-29T03:57:15;12.40;99.90
19968;DHT22;10145;49.152;9.282;2023-04-29T03:59:41;12.40;99.90
19968;DHT22;10145;49.152;9.282;2023-04-29T04:02:06;12.40;99.90
19968;DHT22;10145;49.152;9.282;2023-04-29T04:04:32;12.40;99.90
19968;DHT22;10145;49.152;9.282;2023-04-29T04:06:58;12.40;99.90
19968;DHT22;10145;49.152;9.282;2023-04-29T04:09:24;12.40;99.90
19968;DHT22;10145;49.152;9.282;2023-04-29T04:11:49;12.40;99.90
19968;DHT22;10145;49.152;9.282;2023-04-29T04:14:15;12.30;99.90
19968;DHT22;10145;49.152;9.282;2023-04-29T04:16:40;12.30;99.90
19968;DHT22;10145;49.152;9.282;2023-04-29T04:19:06;12.30;99.90
19968;DHT22;10145;49.152;9.282;2023-04-29T04:21:31;12.30;99.90
19968;DHT22;10145;49.152;9.282;2023-04-29T04:23:57;12.30;99.90
19968;DHT22;10145;49.152;9.282;2023-04-29T04:26:22;12.30;99.90
19968;DHT22;10145;49.152;9.282;2023-04-29T04:28:48;12.20;99.90
19968;DHT22;10145;49.152;9.282;2023-04-29T04:31:13;12.20;99.90
19968;DHT22;10145;49.152;9.282;2023-04-29T04:33:39;12.10;99.90
19968;DHT22;10145;49.152;9.282;2023-04-29T04:36:05;12.10;99.90
19968;DHT22;10145;49.152;9.282;2023-04-29T04:38:31;12.10;99.90
19968;DHT22;10145;49.152;9.282;2023-04-29T04:40:57;12.00;99.90
19968;DHT22;10145;49.152;9.282;2023-04-29T04:43:23;11.90;99.90
19968;DHT22;10145;49.152;9.282;2023-04-29T04:45:48;11.80;99.90
19968;DHT22;10145;49.152;9.282;2023-04-29T04:48:14;11.80;99.90
19968;DHT22;10145;49.152;9.282;2023-04-29T04:50:40;11.70;99.90
19968;DHT22;10145;49.152;9.282;2023-04-29T04:53:05;11.60;99.90
19968;DHT22;10145;49.152;9.282;2023-04-29T04:55:31;11.60;99.90
19968;DHT22;10145;49.152;9.282;2023-04-29T04:57:58;11.60;99.90
19968;DHT22;10145;49.152;9.282;2023-04-29T05:00:23;11.70;99.90
19968;DHT22;10145;49.152;9.282;2023-04-29T05:02:49;11.80;99.90
19968;DHT22;10145;49.152;9.282;2023-04-29T05:05:14;11.90;99.90
19968;DHT22;10145;49.152;9.282;2023-04-29T05:07:40;11.80;99.90
19968;DHT22;10145;49.152;9.282;2023-04-29T05:10:06;11.70;99.90
19968;DHT22;10145;49.152;9.282;2023-04-29T05:12:32;11.60;99.90
19968;DHT22;10145;49.152;9.282;2023-04-29T05:14:59;11.50;99.90
19968;DHT22;10145;49.152;9.282;2023-04-29T05:17:25;11.30;99.90
19968;DHT22;10145;49.152;9.282;2023-04-29T05:19:51;11.20;99.90
19968;DHT22;10145;49.152;9.282;2023-04-29T05:22:16;11.20;99.90
19968;DHT22;10145;49.152;9.282;2023-04-29T05:24:42;11.20;99.90
19968;DHT22;10145;49.152;9.282;2023-04-29T05:27:07;11.10;99.90
19968;DHT22;10145;49.152;9.282;2023-04-29T05:29:33;11.10;99.90
19968;DHT22;10145;49.152;9.282;2023-04-29T05:31:59;11.10;99.90
19968;DHT22;10145;49.152;9.282;2023-04-29T05:34:24;11.20;99.90
19968;DHT22;10145;49.152;9.282;2023-04-29T05:36:50;11.20;99.90
19968;DHT22;10145;49.152;9.282;2023-04-29T05:39:16;11.40;99.90
19968;DHT22;10145;49.152;9.282;2023-04-29T05:41:42;11.60;99.90
19968;DHT22;10145;49.152;9.282;2023-04-29T05:44:08;11.80;99.90
19968;DHT22;10145;49.152;9.282;2023-04-29T05:46:33;12.10;99.90
19968;DHT22;10145;49.152;9.282;2023-04-29T05:48:59;12.20;99.90
19968;DHT22;10145;49.152;9.282;2023-04-29T05:51:24;12.20;99.90
19968;DHT22;10145;49.152;9.282;2023-04-29T05:53:50;12.30;99.90
19968;DHT22;10145;49.152;9.282;2023-04-29T05:56:16;12.30;99.90
19968;DHT22;10145;49.152;9.282;2023-04-29T05:58:42;12.30;99.90
19968;DHT22;10145;49.152;9.282;2023-04-29T06:01:07;12.20;99.90
19968;DHT22;10145;49.152;9.282;2023-04-29T06:03:33;12.10;99.90
19968;DHT22;10145;49.152;9.282;2023-04-29T06:05:59;12.10;99.90
19968;DHT22;10145;49.152;9.282;2023-04-29T06:08:25;12.00;99.90
19968;DHT22;10145;49.152;9.282;2023-04-29T06:10:51;12.00;99.90
19968;DHT22;10145;49.152;9.282;2023-04-29T06:13:17;12.10;99.90
19968;DHT22;10145;49.152;9.282;2023-04-29T06:15:43;12.10;99.90
19968;DHT22;10145;49.152;9.282;2023-04-29T06:18:08;12.10;99.90
19968;DHT22;10145;49.152;9.282;2023-04-29T06:20:34;12.10;99.90
19968;DHT22;10145;49.152;9.282;2023-04-29T06:23:00;12.30;99.90
19968;DHT22;10145;49.152;9.282;2023-04-29T06:25:25;12.30;99.90
19968;DHT22;10145;49.152;9.282;2023-04-29T06:27:51;12.30;99.90
19968;DHT22;10145;49.152;9.282;2023-04-29T06:30:16;12.30;99.90
19968;DHT22;10145;49.152;9.282;2023-04-29T06:32:42;12.40;99.90
19968;DHT22;10145;49.152;9.282;2023-04-29T06:35:08;12.50;99.90
19968;DHT22;10145;49.152;9.282;2023-04-29T06:37:33;12.50;99.90
19968;DHT22;10145;49.152;9.282;2023-04-29T06:39:59;12.60;99.90
19968;DHT22;10145;49.152;9.282;2023-04-29T06:42:24;12.80;99.90
19968;DHT22;10145;49.152;9.282;2023-04-29T06:44:50;13.00;99.90
19968;DHT22;10145;49.152;9.282;2023-04-29T06:47:15;13.10;99.90
19968;DHT22;10145;49.152;9.282;2023-04-29T06:49:41;13.30;99.90
19968;DHT22;10145;49.152;9.282;2023-04-29T06:52:08;13.40;99.90
19968;DHT22;10145;49.152;9.282;2023-04-29T06:54:34;13.60;99.90
19968;DHT22;10145;49.152;9.282;2023-04-29T06:56:59;13.50;99.90
19968;DHT22;10145;49.152;9.282;2023-04-29T06:59:26;13.60;99.90
19968;DHT22;10145;49.152;9.282;2023-04-29T07:01:51;13.30;99.90
19968;DHT22;10145;49.152;9.282;2023-04-29T07:04:17;13.20;99.90
19968;DHT22;10145;49.152;9.282;2023-04-29T07:06:43;13.10;99.90
19968;DHT22;10145;49.152;9.282;2023-04-29T07:09:11;13.10;99.90
19968;DHT22;10145;49.152;9.282;2023-04-29T07:11:38;13.20;99.90
19968;DHT22;10145;49.152;9.282;2023-04-29T07:14:04;13.20;99.90
19968;DHT22;10145;49.152;9.282;2023-04-29T07:16:29;13.10;99.90
19968;DHT22;10145;49.152;9.282;2023-04-29T07:18:55;13.20;99.90
19968;DHT22;10145;49.152;9.282;2023-04-29T07:21:20;13.20;99.90
19968;DHT22;10145;49.152;9.282;2023-04-29T07:23:46;13.10;99.90
19968;DHT22;10145;49.152;9.282;2023-04-29T07:26:14;13.10;99.90
19968;DHT22;10145;49.152;9.282;2023-04-29T07:28:40;13.10;99.90
19968;DHT22;10145;49.152;9.282;2023-04-29T07:31:07;13.00;99.90
19968;DHT22;10145;49.152;9.282;2023-04-29T07:33:33;13.20;99.90
19968;DHT22;10145;49.152;9.282;2023-04-29T07:35:59;13.10;99.90
19968;DHT22;10145;49.152;9.282;2023-04-29T07:38:25;13.20;99.90
19968;DHT22;10145;49.152;9.282;2023-04-29T07:40:51;13.20;99.90
19968;DHT22;10145;49.152;9.282;2023-04-29T07:43:16;13.10;99.90
19968;DHT22;10145;49.152;9.282;2023-04-29T07:45:42;13.10;99.90
19968;DHT22;10145;49.152;9.282;2023-04-29T07:48:08;13.10;99.90
19968;DHT22;10145;49.152;9.282;2023-04-29T07:50:34;13.30;99.90
19968;DHT22;10145;49.152;9.282;2023-04-29T07:53:01;13.60;99.90
19968;DHT22;10145;49.152;9.282;2023-04-29T07:55:27;13.90;99.90
19968;DHT22;10145;49.152;9.282;2023-04-29T07:57:54;14.30;99.90
19968;DHT22;10145;49.152;9.282;2023-04-29T08:00:21;14.50;99.90
19968;DHT22;10145;49.152;9.282;2023-04-29T08:02:53;14.50;99.90
19968;DHT22;10145;49.152;9.282;2023-04-29T08:05:19;14.50;99.90
19968;DHT22;10145;49.152;9.282;2023-04-29T08:07:48;14.60;99.90
19968;DHT22;10145;49.152;9.282;2023-04-29T08:10:14;14.90;99.90
19968;DHT22;10145;49.152;9.282;2023-04-29T08:12:40;15.10;99.90
19968;DHT22;10145;49.152;9.282;2023-04-29T08:15:09;15.10;99.90
19968;DHT22;10145;49.152;9.282;2023-04-29T08:17:37;15.10;99.90
19968;DHT22;10145;49.152;9.282;2023-04-29T08:20:02;15.10;99.90
19968;DHT22;10145;49.152;9.282;2023-04-29T08:22:28;14.90;99.90
19968;DHT22;10145;49.152;9.282;2023-04-29T08:24:54;14.80;99.90
19968;DHT22;10145;49.152;9.282;2023-04-29T08:27:20;14.50;99.90
19968;DHT22;10145;49.152;9.282;2023-04-29T08:29:46;14.20;99.90
19968;DHT22;10145;49.152;9.282;2023-04-29T08:32:11;14.10;99.90
19968;DHT22;10145;49.152;9.282;2023-04-29T08:34:37;14.00;99.90
19968;DHT22;10145;49.152;9.282;2023-04-29T08:37:03;14.00;99.90
19968;DHT22;10145;49.152;9.282;2023-04-29T08:39:29;14.20;99.90
19968;DHT22;10145;49.152;9.282;2023-04-29T08:41:56;14.40;99.90
19968;DHT22;10145;49.152;9.282;2023-04-29T08:44:22;14.80;99.90
19968;DHT22;10145;49.152;9.282;2023-04-29T08:46:48;15.10;99.90
19968;DHT22;10145;49.152;9.282;2023-04-29T08:49:15;15.30;99.90
19968;DHT22;10145;49.152;9.282;2023-04-29T08:51:46;15.80;99.90
19968;DHT22;10145;49.152;9.282;2023-04-29T08:54:12;16.00;99.90
19968;DHT22;10145;49.152;9.282;2023-04-29T08:56:38;16.00;99.90
19968;DHT22;10145;49.152;9.282;2023-04-29T08:59:03;16.20;99.90
19968;DHT22;10145;49.152;9.282;2023-04-29T09:01:35;16.00;99.90
19968;DHT22;10145;49.152;9.282;2023-04-29T09:06:55;15.90;99.90
19968;DHT22;10145;49.152;9.282;2023-04-29T09:09:23;15.70;99.90
19968;DHT22;10145;49.152;9.282;2023-04-29T09:11:49;15.50;99.90
19968;DHT22;10145;49.152;9.282;2023-04-29T09:14:15;15.50;99.90
19968;DHT22;10145;49.152;9.282;2023-04-29T09:16:41;15.30;99.90
19968;DHT22;10145;49.152;9.282;2023-04-29T09:19:06;15.50;99.90
19968;DHT22;10145;49.152;9.282;2023-04-29T09:21:32;15.50;99.90
19968;DHT22;10145;49.152;9.282;2023-04-29T09:24:00;15.90;99.90
19968;DHT22;10145;49.152;9.282;2023-04-29T09:26:26;15.90;99.90
19968;DHT22;10145;49.152;9.282;2023-04-29T09:29:06;15.90;99.90
19968;DHT22;10145;49.152;9.282;2023-04-29T09:31:32;16.00;99.90
19968;DHT22;10145;49.152;9.282;2023-04-29T09:33:57;15.90;99.90
19968;DHT22;10145;49.152;9.282;2023-04-29T09:39:02;16.50;99.90
19968;DHT22;10145;49.152;9.282;2023-04-29T09:41:30;16.80;99.90
19968;DHT22;10145;49.152;9.282;2023-04-29T09:44:03;16.80;99.90
19968;DHT22;10145;49.152;9.282;2023-04-29T09:46:31;17.00;99.90
19968;DHT22;10145;49.152;9.282;2023-04-29T09:48:56;17.20;99.90
19968;DHT22;10145;49.152;9.282;2023-04-29T09:51:23;17.00;99.90
19968;DHT22;10145;49.152;9.282;2023-04-29T09:53:49;16.90;99.90
19968;DHT22;10145;49.152;9.282;2023-04-29T09:56:14;17.10;99.90
19968;DHT22;10145;49.152;9.282;2023-04-29T09:58:41;16.90;99.90
19968;DHT22;10145;49.152;9.282;2023-04-29T10:01:07;17.00;99.90
19968;DHT22;10145;49.152;9.282;2023-04-29T10:03:35;16.90;99.90
19968;DHT22;10145;49.152;9.282;2023-04-29T10:06:03;16.70;99.90
19968;DHT22;10145;49.152;9.282;2023-04-29T10:08:30;16.40;99.90
19968;DHT22;10145;49.152;9.282;2023-04-29T10:11:00;16.30;99.90
19968;DHT22;10145;49.152;9.282;2023-04-29T10:13:26;16.00;99.90
19968;DHT22;10145;49.152;9.282;2023-04-29T10:16:13;16.10;99.90
19968;DHT22;10145;49.152;9.282;2023-04-29T10:18:40;16.30;99.90
19968;DHT22;10145;49.152;9.282;2023-04-29T10:21:09;16.20;99.90
19968;DHT22;10145;49.152;9.282;2023-04-29T10:23:36;15.90;99.90
19968;DHT22;10145;49.152;9.282;2023-04-29T10:26:02;15.70;99.90
19968;DHT22;10145;49.152;9.282;2023-04-29T10:28:30;15.70;99.90
19968;DHT22;10145;49.152;9.282;2023-04-29T10:31:01;15.90;99.90
19968;DHT22;10145;49.152;9.282;2023-04-29T10:33:30;16.00;99.90
19968;DHT22;10145;49.152;9.282;2023-04-29T10:35:58;16.10;99.90
19968;DHT22;10145;49.152;9.282;2023-04-29T10:38:28;16.10;99.90
19968;DHT22;10145;49.152;9.282;2023-04-29T10:40:55;16.10;99.90
19968;DHT22;10145;49.152;9.282;2023-04-29T10:43:25;16.50;99.90
19968;DHT22;10145;49.152;9.282;2023-04-29T10:46:20;16.60;99.90
19968;DHT22;10145;49.152;9.282;2023-04-29T10:48:46;16.70;99.90
19968;DHT22;10145;49.152;9.282;2023-04-29T10:51:38;16.70;99.90
19968;DHT22;10145;49.152;9.282;2023-04-29T10:54:02;16.90;99.90
19968;DHT22;10145;49.152;9.282;2023-04-29T10:59:14;16.90;99.90
19968;DHT22;10145;49.152;9.282;2023-04-29T11:01:44;17.00;99.90
19968;DHT22;10145;49.152;9.282;2023-04-29T11:04:11;17.10;99.90
19968;DHT22;10145;49.152;9.282;2023-04-29T11:06:41;17.10;99.90
19968;DHT22;10145;49.152;9.282;2023-04-29T11:09:10;17.00;99.90
19968;DHT22;10145;49.152;9.282;2023-04-29T11:11:45;16.80;99.90
19968;DHT22;10145;49.152;9.282;2023-04-29T11:14:12;16.70;99.90
19968;DHT22;10145;49.152;9.282;2023-04-29T11:16:46;16.80;99.90
19968;DHT22;10145;49.152;9.282;2023-04-29T11:19:14;16.90;99.90
19968;DHT22;10145;49.152;9.282;2023-04-29T11:21:40;17.00;99.90
19968;DHT22;10145;49.152;9.282;2023-04-29T11:24:06;17.00;99.90
19968;DHT22;10145;49.152;9.282;2023-04-29T11:26:33;17.40;99.90
19968;DHT22;10145;49.152;9.282;2023-04-29T11:28:59;17.50;99.90
19968;DHT22;10145;49.152;9.282;2023-04-29T11:31:29;17.70;99.90
19968;DHT22;10145;49.152;9.282;2023-04-29T11:33:55;18.20;99.90
19968;DHT22;10145;49.152;9.282;2023-04-29T11:36:20;18.30;99.90
19968;DHT22;10145;49.152;9.282;2023-04-29T11:38:46;18.10;99.90
19968;DHT22;10145;49.152;9.282;2023-04-29T11:41:12;17.90;99.90
19968;DHT22;10145;49.152;9.282;2023-04-29T11:43:39;17.80;99.90
19968;DHT22;10145;49.152;9.282;2023-04-29T11:46:11;18.00;99.90
19968;DHT22;10145;49.152;9.282;2023-04-29T11:48:48;18.20;99.90
19968;DHT22;10145;49.152;9.282;2023-04-29T11:51:17;18.00;99.90
19968;DHT22;10145;49.152;9.282;2023-04-29T11:53:46;18.00;99.90
19968;DHT22;10145;49.152;9.282;2023-04-29T11:56:12;17.90;99.90
19968;DHT22;10145;49.152;9.282;2023-04-29T11:58:38;18.00;99.90
19968;DHT22;10145;49.152;9.282;2023-04-29T12:01:04;18.20;99.90
19968;DHT22;10145;49.152;9.282;2023-04-29T12:03:31;18.00;99.90
19968;DHT22;10145;49.152;9.282;2023-04-29T12:05:57;17.90;99.90
19968;DHT22;10145;49.152;9.282;2023-04-29T12:08:27;18.20;99.90
19968;DHT22;10145;49.152;9.282;2023-04-29T12:10:55;18.50;99.90
19968;DHT22;10145;49.152;9.282;2023-04-29T12:13:27;18.70;99.90
19968;DHT22;10145;49.152;9.282;2023-04-29T12:15:53;19.00;99.90
19968;DHT22;10145;49.152;9.282;2023-04-29T12:18:19;18.80;99.90
19968;DHT22;10145;49.152;9.282;2023-04-29T12:20:47;18.80;99.90
19968;DHT22;10145;49.152;9.282;2023-04-29T12:23:15;18.80;99.90
19968;DHT22;10145;49.152;9.282;2023-04-29T12:25:40;18.70;99.90
19968;DHT22;10145;49.152;9.282;2023-04-29T12:28:13;18.40;99.90
19968;DHT22;10145;49.152;9.282;2023-04-29T12:30:39;18.40;99.90
19968;DHT22;10145;49.152;9.282;2023-04-29T12:33:07;18.30;99.90
19968;DHT22;10145;49.152;9.282;2023-04-29T12:35:34;18.50;99.90
19968;DHT22;10145;49.152;9.282;2023-04-29T12:37:59;18.30;99.90
19968;DHT22;10145;49.152;9.282;2023-04-29T12:40:25;18.10;99.90
19968;DHT22;10145;49.152;9.282;2023-04-29T12:42:54;18.40;99.90
19968;DHT22;10145;49.152;9.282;2023-04-29T12:45:30;18.40;99.90
19968;DHT22;10145;49.152;9.282;2023-04-29T12:47:57;18.40;99.90
19968;DHT22;10145;49.152;9.282;2023-04-29T12:50:34;18.50;99.90
19968;DHT22;10145;49.152;9.282;2023-04-29T12:53:01;18.30;99.90
19968;DHT22;10145;49.152;9.282;2023-04-29T12:55:30;18.10;99.90
19968;DHT22;10145;49.152;9.282;2023-04-29T12:57:55;17.80;99.90
19968;DHT22;10145;49.152;9.282;2023-04-29T13:00:21;17.40;99.90
19968;DHT22;10145;49.152;9.282;2023-04-29T13:02:47;17.20;99.90
19968;DHT22;10145;49.152;9.282;2023-04-29T13:05:13;16.70;99.90
19968;DHT22;10145;49.152;9.282;2023-04-29T13:07:38;16.20;99.90
19968;DHT22;10145;49.152;9.282;2023-04-29T13:10:05;16.00;99.90
19968;DHT22;10145;49.152;9.282;2023-04-29T13:12:31;15.90;99.90
19968;DHT22;10145;49.152;9.282;2023-04-29T13:14:57;16.00;99.90
19968;DHT22;10145;49.152;9.282;2023-04-29T13:17:22;16.10;99.90
19968;DHT22;10145;49.152;9.282;2023-04-29T13:19:48;16.50;99.90
19968;DHT22;10145;49.152;9.282;2023-04-29T13:22:13;16.40;99.90
19968;DHT22;10145;49.152;9.282;2023-04-29T13:24:39;16.50;99.90
19968;DHT22;10145;49.152;9.282;2023-04-29T13:27:05;16.50;99.90
19968;DHT22;10145;49.152;9.282;2023-04-29T13:29:30;16.70;99.90
19968;DHT22;10145;49.152;9.282;2023-04-29T13:31:56;17.10;99.90
19968;DHT22;10145;49.152;9.282;2023-04-29T13:34:21;16.90;99.90
19968;DHT22;10145;49.152;9.282;2023-04-29T13:36:47;17.10;99.90
19968;DHT22;10145;49.152;9.282;2023-04-29T13:39:12;17.20;99.90
19968;DHT22;10145;49.152;9.282;2023-04-29T13:41:38;16.80;99.90
19968;DHT22;10145;49.152;9.282;2023-04-29T13:44:03;16.90;99.90
19968;DHT22;10145;49.152;9.282;2023-04-29T13:46:29;16.50;99.90
19968;DHT22;10145;49.152;9.282;2023-04-29T13:48:59;16.40;99.90
19968;DHT22;10145;49.152;9.282;2023-04-29T13:51:25;16.10;99.90
19968;DHT22;10145;49.152;9.282;2023-04-29T13:53:50;16.10;99.90
19968;DHT22;10145;49.152;9.282;2023-04-29T13:56:16;16.10;99.90
19968;DHT22;10145;49.152;9.282;2023-04-29T13:58:42;16.00;99.90
19968;DHT22;10145;49.152;9.282;2023-04-29T14:01:07;15.90;99.90
19968;DHT22;10145;49.152;9.282;2023-04-29T14:03:33;15.80;99.90
19968;DHT22;10145;49.152;9.282;2023-04-29T14:05:59;15.60;99.90
19968;DHT22;10145;49.152;9.282;2023-04-29T14:08:25;15.60;99.90
19968;DHT22;10145;49.152;9.282;2023-04-29T14:10:50;15.60;99.90
19968;DHT22;10145;49.152;9.282;2023-04-29T14:13:16;15.60;99.90
19968;DHT22;10145;49.152;9.282;2023-04-29T14:15:42;15.40;99.90
19968;DHT22;10145;49.152;9.282;2023-04-29T14:18:08;15.20;99.90
19968;DHT22;10145;49.152;9.282;2023-04-29T14:20:34;15.20;99.90
19968;DHT22;10145;49.152;9.282;2023-04-29T14:23:00;15.20;99.90
19968;DHT22;10145;49.152;9.282;2023-04-29T14:25:26;15.20;99.90
19968;DHT22;10145;49.152;9.282;2023-04-29T14:27:52;15.10;99.90
19968;DHT22;10145;49.152;9.282;2023-04-29T14:30:17;15.10;99.90
19968;DHT22;10145;49.152;9.282;2023-04-29T14:32:43;14.90;99.90
19968;DHT22;10145;49.152;9.282;2023-04-29T14:35:09;14.80;99.90
19968;DHT22;10145;49.152;9.282;2023-04-29T14:37:35;14.90;99.90
19968;DHT22;10145;49.152;9.282;2023-04-29T14:40:01;14.90;99.90
19968;DHT22;10145;49.152;9.282;2023-04-29T14:42:27;15.00;99.90
19968;DHT22;10145;49.152;9.282;2023-04-29T14:44:52;15.20;99.90
19968;DHT22;10145;49.152;9.282;2023-04-29T14:47:18;15.20;99.90
19968;DHT22;10145;49.152;9.282;2023-04-29T14:49:44;15.20;99.90
19968;DHT22;10145;49.152;9.282;2023-04-29T14:52:10;15.20;99.90
19968;DHT22;10145;49.152;9.282;2023-04-29T14:54:36;15.20;99.90
19968;DHT22;10145;49.152;9.282;2023-04-29T14:57:01;15.20;99.90
19968;DHT22;10145;49.152;9.282;2023-04-29T14:59:30;15.10;99.90
19968;DHT22;10145;49.152;9.282;2023-04-29T15:01:56;15.20;99.90
19968;DHT22;10145;49.152;9.282;2023-04-29T15:04:22;15.20;99.90
19968;DHT22;10145;49.152;9.282;2023-04-29T15:06:48;15.30;99.90
19968;DHT22;10145;49.152;9.282;2023-04-29T15:09:14;15.40;99.90
19968;DHT22;10145;49.152;9.282;2023-04-29T15:11:40;15.60;99.90
19968;DHT22;10145;49.152;9.282;2023-04-29T15:14:06;15.60;99.90
19968;DHT22;10145;49.152;9.282;2023-04-29T15:16:37;15.70;99.90
19968;DHT22;10145;49.152;9.282;2023-04-29T15:19:02;15.90;99.90
19968;DHT22;10145;49.152;9.282;2023-04-29T15:21:28;15.80;99.90
19968;DHT22;10145;49.152;9.282;2023-04-29T15:23:54;15.90;99.90
19968;DHT22;10145;49.152;9.282;2023-04-29T15:26:20;15.90;99.90
19968;DHT22;10145;49.152;9.282;2023-04-29T15:28:46;15.80;99.90
19968;DHT22;10145;49.152;9.282;2023-04-29T15:31:11;15.80;99.90
19968;DHT22;10145;49.152;9.282;2023-04-29T15:33:37;15.80;99.90
19968;DHT22;10145;49.152;9.282;2023-04-29T15:36:03;15.80;99.90
19968;DHT22;10145;49.152;9.282;2023-04-29T15:38:30;15.60;99.90
19968;DHT22;10145;49.152;9.282;2023-04-29T15:40:57;15.50;99.90
19968;DHT22;10145;49.152;9.282;2023-04-29T15:43:28;15.40;99.90